الصفحة الرئيسية
METAR-TAF:

METAR-TAF

مطار :

مطار فا الدولي

تاهيتي, بولينسيا الفرنسية

دائرة عرض: 17-33S, خط طول: 149-37W, ارتفاع: 2 متر

مراقبة الطقس الحالي

تاريخ ووقت الإصدار 31 دقيقة قبل الساعة 15:30UTC
ريح 2 عقدة من الجنوب/الجنوب الشرقي
درجة الحرارة 23°درجة مئوية
الرطوبة 83%
ضغط 1014 hPa
الرؤية 10 كم أو أكثر

METAR: NTAA 221530Z AUTO 16002KT 9999 NCD 23/20 Q1014

زمن: 06:01 (16:01 UTC)

توقعات

تاريخ ووقت الإصدار 5ساعات و 1 دقيقة قبل الساعة 11:00UTC
التوقعات صالحة من22 الساعة 12 UTC إلى 23 الساعة 18 UTC
ريح 5 عقدةمن اتجاهات متغيرة
الرؤية 10 كم أو أكثر
غيوم قليلة على ارتفاع 2500 قدم
نظرية الاحتمالات 40% :
مؤقت
من 22 الساعة 22 UTC إلى 23 الساعة 02 UTC
ريح 10 عقدة من الغرب
نظرية الاحتمالات 30% :
مؤقت
من 23 الساعة 09 UTC إلى 23 الساعة 18 UTC
ريح 12 عقدة من الشرق/الشمال الشرقي تتزايد حتى 22 عقدة
الرؤية: 4500 متر
غيوم متفرقة على ارتفاع 2000 قدم
غيوم مفككة على ارتفاع 4500 قدم
زخات من المطر

TAF: NTAA 221100Z 2212/2318 VRB05KT 9999 FEW025 PROB40 TEMPO 2222/2302 28010KT PROB30 TEMPO 2309/2318 07012G22KT 4500 SHRA SCT020 BKN045

أرصاد الطقس والتوقعات من أكثر من 4000 مطار (تقارير الطقس للمطار METAR والتنبؤ بالطقس بالمطارTAF).

المحطات المتاحة هي النقط الصفراء والحمراء على الخريطة.

حرك المؤشر فوق النقطة لمعرفة اسم المحطة.

ثم انقر لمعرفة أرصاد وتوقعات الطقس.

لتغيير الخارطة: اضغط على الأزرار الخضراء مع رمز الصليب الأسود للتكبير. على الزر الأخضر مع شرطة للتصغير، أو على الأسهم الخضراء للخرائط المجاورة.


METAR-TAF: